Time,TemperatureF,DewpointF,PressureIn,WindDirection,WindDirectionDegrees,WindSpeedMPH,WindSpeedGustMPH,Humidity,HourlyPrecipIn,Conditions,Clouds,dailyrainin,SoftwareType,DateUTC
2017-06-23 00:06:00,69.4,62.0,29.88,WSW,245,5.0,10.0,76,0.00,,,0.00,weatherlink.com 1.10,2017-06-23 04:06:00,
2017-06-23 00:21:00,69.4,62.0,29.87,SW,231,2.0,8.0,77,0.00,,,0.00,weatherlink.com 1.10,2017-06-23 04:21:00,
2017-06-23 00:36:00,69.4,63.0,29.87,South,173,4.0,10.0,79,0.00,,,0.00,weatherlink.com 1.10,2017-06-23 04:36:00,
2017-06-23 00:51:00,69.6,64.0,29.86,South,190,4.0,10.0,81,0.00,,,0.00,weatherlink.com 1.10,2017-06-23 04:51:00,
2017-06-23 01:06:00,69.7,64.0,29.85,South,191,6.0,14.0,82,0.00,,,0.00,weatherlink.com 1.10,2017-06-23 05:06:00,
2017-06-23 01:21:00,69.7,64.0,29.84,SSW,195,6.0,11.0,82,0.00,,,0.00,weatherlink.com 1.10,2017-06-23 05:21:00,
2017-06-23 01:36:00,70.0,65.0,29.83,South,174,4.0,18.0,83,0.00,,,0.00,weatherlink.com 1.10,2017-06-23 05:36:00,
2017-06-23 01:51:00,70.6,65.0,29.82,SSW,207,5.0,12.0,83,0.00,,,0.00,weatherlink.com 1.10,2017-06-23 05:51:00,
2017-06-23 02:06:00,71.1,66.0,29.82,SSW,199,6.0,13.0,83,0.00,,,0.00,weatherlink.com 1.10,2017-06-23 06:06:00,
2017-06-23 02:21:00,71.2,66.0,29.81,SW,219,7.0,18.0,83,0.00,,,0.00,weatherlink.com 1.10,2017-06-23 06:21:00,
2017-06-23 02:36:00,70.9,66.0,29.80,WSW,239,6.0,10.0,84,0.00,,,0.00,weatherlink.com 1.10,2017-06-23 06:36:00,
2017-06-23 02:51:00,70.1,66.0,29.80,SSW,201,5.0,14.0,87,0.02,,,0.02,weatherlink.com 1.10,2017-06-23 06:51:00,
2017-06-23 03:06:00,69.5,66.0,29.81,West,263,2.0,9.0,89,0.06,,,0.06,weatherlink.com 1.10,2017-06-23 07:06:00,
2017-06-23 03:21:00,66.0,64.0,29.83,WNW,301,4.0,28.0,94,0.67,,,0.67,weatherlink.com 1.10,2017-06-23 07:21:00,
2017-06-23 03:36:00,65.2,64.0,29.82,West,260,2.0,8.0,95,0.85,,,0.85,weatherlink.com 1.10,2017-06-23 07:36:00,
2017-06-23 03:51:00,65.1,64.0,29.80,SW,236,4.0,5.0,96,0.90,,,0.92,weatherlink.com 1.10,2017-06-23 07:51:00,
2017-06-23 04:06:00,65.0,64.0,29.80,SSE,160,2.0,2.0,96,0.86,,,0.93,weatherlink.com 1.10,2017-06-23 08:06:00,
2017-06-23 04:21:00,65.1,64.0,29.80,SSE,160,2.0,4.0,96,0.24,,,0.93,weatherlink.com 1.10,2017-06-23 08:21:00,
2017-06-23 04:36:00,65.1,64.0,29.79,South,170,2.0,5.0,96,0.08,,,0.93,weatherlink.com 1.10,2017-06-23 08:36:00,
2017-06-23 04:51:00,65.0,64.0,29.78,SSE,152,2.0,7.0,96,0.22,,,1.14,weatherlink.com 1.10,2017-06-23 08:51:00,
2017-06-23 05:06:00,64.9,64.0,29.77,SE,136,1.0,6.0,96,0.22,,,1.15,weatherlink.com 1.10,2017-06-23 09:06:00,
2017-06-23 05:21:00,65.0,64.0,29.77,SE,146,0.0,4.0,96,0.23,,,1.16,weatherlink.com 1.10,2017-06-23 09:21:00,
2017-06-23 05:36:00,65.1,64.0,29.80,WNW,290,0.0,21.0,96,0.41,,,1.35,weatherlink.com 1.10,2017-06-23 09:36:00,
2017-06-23 05:52:00,65.1,64.0,29.80,WSW,253,6.0,9.0,97,0.29,,,1.43,weatherlink.com 1.10,2017-06-23 09:52:00,
2017-06-23 06:07:00,64.9,64.0,29.81,SW,222,6.0,9.0,97,0.31,,,1.46,weatherlink.com 1.10,2017-06-23 10:07:00,
2017-06-23 06:22:00,64.5,64.0,29.79,SSW,210,2.0,8.0,97,0.39,,,1.55,weatherlink.com 1.10,2017-06-23 10:22:00,
2017-06-23 06:37:00,64.4,64.0,29.80,WSW,246,4.0,7.0,97,0.26,,,1.62,weatherlink.com 1.10,2017-06-23 10:37:00,
2017-06-23 06:52:00,64.4,64.0,29.78,SW,219,5.0,5.0,97,0.19,,,1.63,weatherlink.com 1.10,2017-06-23 10:52:00,
2017-06-23 07:07:00,64.4,64.0,29.79,WSW,240,4.0,6.0,97,0.17,,,1.63,weatherlink.com 1.10,2017-06-23 11:07:00,
2017-06-23 07:22:00,64.4,64.0,29.78,SW,229,6.0,7.0,97,0.08,,,1.63,weatherlink.com 1.10,2017-06-23 11:22:00,
2017-06-23 07:43:00,64.4,64.0,29.77,SSW,203,5.0,6.0,97,0.02,,,1.64,weatherlink.com 1.10,2017-06-23 11:43:00,
2017-06-23 07:52:00,64.6,64.0,29.76,South,169,2.0,7.0,97,0.01,,,1.64,weatherlink.com 1.10,2017-06-23 11:52:00,
2017-06-23 08:07:00,65.0,64.0,29.76,SSW,211,3.0,6.0,97,0.01,,,1.64,weatherlink.com 1.10,2017-06-23 12:07:00,
2017-06-23 08:22:00,65.0,64.0,29.78,SW,236,5.0,7.0,97,0.06,,,1.69,weatherlink.com 1.10,2017-06-23 12:22:00,
2017-06-23 08:37:00,65.1,64.0,29.77,West,276,0.0,3.0,97,0.06,,,1.70,weatherlink.com 1.10,2017-06-23 12:37:00,
2017-06-23 08:52:00,65.4,65.0,29.77,NW,316,0.0,1.0,97,0.06,,,1.70,weatherlink.com 1.10,2017-06-23 12:52:00,
2017-06-23 09:07:00,65.7,65.0,29.76,SE,127,1.0,2.0,97,0.06,,,1.70,weatherlink.com 1.10,2017-06-23 13:07:00,
2017-06-23 09:22:00,65.5,65.0,29.75,SE,124,0.0,2.0,97,0.00,,,1.70,weatherlink.com 1.10,2017-06-23 13:22:00,
2017-06-23 09:37:00,65.5,65.0,29.75,ENE,60,0.0,4.0,97,0.05,,,1.75,weatherlink.com 1.10,2017-06-23 13:37:00,
2017-06-23 09:52:00,65.7,65.0,29.74,NW,316,0.0,2.0,97,0.18,,,1.88,weatherlink.com 1.10,2017-06-23 13:52:00,
2017-06-23 10:07:00,65.5,65.0,29.74,SW,233,4.0,5.0,97,0.23,,,1.93,weatherlink.com 1.10,2017-06-23 14:07:00,
2017-06-23 10:22:00,65.8,65.0,29.73,SSW,197,5.0,7.0,97,0.23,,,1.93,weatherlink.com 1.10,2017-06-23 14:22:00,
2017-06-23 10:37:00,67.1,66.0,29.72,SE,143,5.0,7.0,97,0.18,,,1.94,weatherlink.com 1.10,2017-06-23 14:37:00,
2017-06-23 10:52:00,68.3,68.0,29.72,SSW,200,4.0,9.0,97,0.06,,,1.94,weatherlink.com 1.10,2017-06-23 14:52:00,
2017-06-23 11:07:00,69.8,69.0,29.71,WSW,242,5.0,12.0,96,0.01,,,1.94,weatherlink.com 1.10,2017-06-23 15:07:00,
2017-06-23 11:22:00,70.1,69.0,29.71,SSW,198,9.0,17.0,95,0.01,,,1.94,weatherlink.com 1.10,2017-06-23 15:22:00,
2017-06-23 11:37:00,71.2,70.0,29.70,SSE,165,6.0,14.0,96,0.00,,,1.94,weatherlink.com 1.10,2017-06-23 15:37:00,
2017-06-23 11:52:00,71.2,69.0,29.70,SW,233,9.0,15.0,94,0.00,,,1.94,weatherlink.com 1.10,2017-06-23 15:52:00,
2017-06-23 12:07:00,72.5,70.0,29.69,SW,226,6.0,17.0,90,0.00,,,1.94,weatherlink.com 1.10,2017-06-23 16:07:00,
2017-06-23 12:22:00,72.4,69.0,29.69,SSW,203,7.0,17.0,89,0.00,,,1.94,weatherlink.com 1.10,2017-06-23 16:22:00,
2017-06-23 12:37:00,73.3,70.0,29.68,South,172,10.0,15.0,89,0.00,,,1.94,weatherlink.com 1.10,2017-06-23 16:37:00,
2017-06-23 12:52:00,74.2,69.0,29.67,SW,214,4.0,14.0,83,0.00,,,1.94,weatherlink.com 1.10,2017-06-23 16:52:00,
2017-06-23 13:07:00,75.3,70.0,29.66,South,183,12.0,13.0,83,0.00,,,1.94,weatherlink.com 1.10,2017-06-23 17:07:00,
2017-06-23 13:22:00,75.9,70.0,29.66,SW,236,4.0,11.0,81,0.00,,,1.94,weatherlink.com 1.10,2017-06-23 17:22:00,
2017-06-23 13:38:00,76.1,69.0,29.64,SW,231,6.0,14.0,79,0.00,,,1.94,weatherlink.com 1.10,2017-06-23 17:38:00,
2017-06-23 13:53:00,76.1,69.0,29.64,South,188,6.0,10.0,78,0.00,,,1.94,weatherlink.com 1.10,2017-06-23 17:53:00,
2017-06-23 14:08:00,75.1,68.0,29.63,SE,143,6.0,13.0,79,0.00,,,1.94,weatherlink.com 1.10,2017-06-23 18:08:00,
2017-06-23 14:23:00,74.6,68.0,29.63,WSW,247,4.0,14.0,79,0.00,,,1.94,weatherlink.com 1.10,2017-06-23 18:23:00,
2017-06-23 14:38:00,72.4,68.0,29.63,SSE,158,9.0,15.0,86,0.03,,,1.97,weatherlink.com 1.10,2017-06-23 18:38:00,
2017-06-23 14:53:00,70.7,67.0,29.63,SW,215,10.0,16.0,89,0.06,,,2.00,weatherlink.com 1.10,2017-06-23 18:53:00,
2017-06-23 15:08:00,71.0,68.0,29.62,SW,232,6.0,17.0,90,0.06,,,2.00,weatherlink.com 1.10,2017-06-23 19:08:00,
2017-06-23 15:23:00,72.6,69.0,29.61,South,170,9.0,21.0,87,0.06,,,2.00,weatherlink.com 1.10,2017-06-23 19:23:00,
2017-06-23 15:38:00,72.4,68.0,29.61,SSW,208,7.0,22.0,87,0.03,,,2.00,weatherlink.com 1.10,2017-06-23 19:38:00,
2017-06-23 15:53:00,72.4,68.0,29.61,WSW,252,11.0,20.0,87,0.00,,,2.00,weatherlink.com 1.10,2017-06-23 19:53:00,
2017-06-23 16:08:00,72.0,68.0,29.59,SW,225,8.0,14.0,88,0.00,,,2.00,weatherlink.com 1.10,2017-06-23 20:08:00,
2017-06-23 16:24:00,72.0,68.0,29.59,South,186,6.0,17.0,88,0.00,,,2.00,weatherlink.com 1.10,2017-06-23 20:24:00,
2017-06-23 16:38:00,72.0,68.0,29.59,South,180,9.0,21.0,88,0.00,,,2.00,weatherlink.com 1.10,2017-06-23 20:38:00,
2017-06-23 16:53:00,72.0,69.0,29.59,South,177,13.0,13.0,89,0.00,,,2.00,weatherlink.com 1.10,2017-06-23 20:53:00,
2017-06-23 17:08:00,72.4,68.0,29.59,SSW,207,12.0,21.0,87,0.00,,,2.00,weatherlink.com 1.10,2017-06-23 21:08:00,
2017-06-23 17:23:00,72.5,69.0,29.58,SW,233,5.0,20.0,87,0.00,,,2.00,weatherlink.com 1.10,2017-06-23 21:23:00,
2017-06-23 17:38:00,72.8,69.0,29.57,West,274,15.0,19.0,87,0.00,,,2.00,weatherlink.com 1.10,2017-06-23 21:38:00,
2017-06-23 17:53:00,72.8,68.0,29.57,SW,228,9.0,19.0,86,0.00,,,2.00,weatherlink.com 1.10,2017-06-23 21:53:00,
2017-06-23 18:08:00,72.7,69.0,29.57,SSW,200,11.0,17.0,87,0.00,,,2.00,weatherlink.com 1.10,2017-06-23 22:08:00,
2017-06-23 18:23:00,72.4,69.0,29.56,SSW,193,5.0,16.0,88,0.00,,,2.00,weatherlink.com 1.10,2017-06-23 22:23:00,
2017-06-23 18:38:00,72.3,69.0,29.56,SSW,202,7.0,15.0,88,0.00,,,2.00,weatherlink.com 1.10,2017-06-23 22:38:00,
2017-06-23 18:53:00,72.3,68.0,29.56,SSW,206,5.0,16.0,87,0.00,,,2.00,weatherlink.com 1.10,2017-06-23 22:53:00,
2017-06-23 19:08:00,72.2,68.0,29.56,SW,236,7.0,13.0,87,0.00,,,2.00,weatherlink.com 1.10,2017-06-23 23:08:00,
2017-06-23 19:23:00,72.1,68.0,29.57,SW,229,7.0,14.0,88,0.00,,,2.00,weatherlink.com 1.10,2017-06-23 23:23:00,
2017-06-23 19:38:00,72.0,68.0,29.57,SSW,204,3.0,9.0,88,0.00,,,2.00,weatherlink.com 1.10,2017-06-23 23:38:00,
2017-06-23 19:53:00,71.7,68.0,29.57,South,180,4.0,11.0,89,0.00,,,2.00,weatherlink.com 1.10,2017-06-23 23:53:00,
2017-06-23 20:08:00,71.2,68.0,29.57,SW,231,5.0,14.0,90,0.01,,,2.01,weatherlink.com 1.10,2017-06-24 00:08:00,
2017-06-23 20:23:00,70.6,68.0,29.57,SSW,198,4.0,9.0,91,0.01,,,2.01,weatherlink.com 1.10,2017-06-24 00:23:00,
2017-06-23 20:38:00,70.3,68.0,29.56,SSW,208,6.0,11.0,91,0.01,,,2.01,weatherlink.com 1.10,2017-06-24 00:38:00,
2017-06-23 20:53:00,70.2,68.0,29.56,SSW,207,4.0,10.0,92,0.01,,,2.01,weatherlink.com 1.10,2017-06-24 00:53:00,
2017-06-23 21:08:00,70.1,68.0,29.57,SSW,210,5.0,9.0,92,0.00,,,2.01,weatherlink.com 1.10,2017-06-24 01:08:00,
2017-06-23 21:23:00,70.2,68.0,29.57,WSW,242,7.0,10.0,92,0.00,,,2.01,weatherlink.com 1.10,2017-06-24 01:23:00,
2017-06-23 21:38:00,70.1,68.0,29.57,SSW,212,10.0,13.0,92,0.00,,,2.01,weatherlink.com 1.10,2017-06-24 01:38:00,
2017-06-23 21:53:00,69.9,68.0,29.58,SW,233,4.0,9.0,93,0.00,,,2.01,weatherlink.com 1.10,2017-06-24 01:53:00,
2017-06-23 22:08:00,69.4,68.0,29.58,SSW,210,5.0,11.0,94,0.27,,,2.28,weatherlink.com 1.10,2017-06-24 02:08:00,
2017-06-23 22:23:00,69.2,68.0,29.58,West,260,0.0,5.0,95,0.31,,,2.32,weatherlink.com 1.10,2017-06-24 02:23:00,
2017-06-23 22:38:00,68.9,68.0,29.57,NNE,23,1.0,5.0,95,0.35,,,2.36,weatherlink.com 1.10,2017-06-24 02:38:00,
2017-06-23 22:53:00,68.6,67.0,29.57,WNW,298,0.0,6.0,95,0.38,,,2.39,weatherlink.com 1.10,2017-06-24 02:53:00,
2017-06-23 23:08:00,68.3,67.0,29.58,NW,304,2.0,9.0,96,0.13,,,2.41,weatherlink.com 1.10,2017-06-24 03:08:00,
2017-06-23 23:23:00,67.9,67.0,29.59,NW,309,2.0,11.0,95,0.11,,,2.43,weatherlink.com 1.10,2017-06-24 03:23:00,